Time;durP1;ratioP1;P1;durP2;ratioP2;P2;SDS_P1;SDS_P2;PMS_P1;PMS_P2;Temp;Humidity;BMP_temperature;BMP_pressure;BME280_temperature;BME280_humidity;BME280_pressure;Samples;Min_cycle;Max_cycle;Signal;HPM_P1;HPM_P2
2023/12/04 00:00:37;;;;;;;23.97;11.57;;;-11.40;99.90;;;;;;4901922;29;20048;-69
2023/12/04 00:07:22;;;;;;;17.23;8.83;;;-11.50;99.90;;;;;;4898883;29;20093;-69
2023/12/04 00:09:49;;;;;;;19.47;10.60;;;-11.50;99.90;;;;;;4900176;29;20076;-69
2023/12/04 00:12:28;;;;;;;17.60;10.47;;;-11.50;99.90;;;;;;4910258;29;20075;-72
2023/12/04 00:15:00;;;;;;;16.00;8.90;;;-11.60;99.90;;;;;;4867463;29;20063;-63
2023/12/04 00:17:31;;;;;;;24.40;10.57;;;-11.80;99.90;;;;;;4872631;29;20049;-63
2023/12/04 00:20:04;;;;;;;21.33;10.07;;;-11.80;99.90;;;;;;4872352;29;20045;-63
2023/12/04 00:22:37;;;;;;;15.63;7.75;;;-11.70;99.90;;;;;;4869671;29;20046;-64
2023/12/04 00:25:09;;;;;;;20.73;9.85;;;-11.70;99.90;;;;;;4890869;29;20045;-63
2023/12/04 00:27:36;;;;;;;26.47;10.37;;;-11.70;99.90;;;;;;4885071;29;20422;-63
2023/12/04 00:30:08;;;;;;;20.10;9.73;;;-11.70;99.90;;;;;;4883707;29;20040;-63
2023/12/04 00:32:35;;;;;;;17.63;9.87;;;-11.70;99.90;;;;;;4890231;29;20048;-63
2023/12/04 00:35:02;;;;;;;19.20;10.40;;;-11.70;99.90;;;;;;4857059;29;20036;-64
2023/12/04 00:37:38;;;;;;;18.23;9.87;;;-11.80;99.90;;;;;;4890509;29;20139;-63
2023/12/04 00:40:10;;;;;;;21.10;10.33;;;-11.80;99.90;;;;;;4892904;29;20049;-64
2023/12/04 00:42:42;;;;;;;25.07;10.97;;;-11.90;99.90;;;;;;4862580;29;20057;-63
2023/12/04 00:45:09;;;;;;;23.00;11.43;;;-11.90;99.90;;;;;;4869949;29;20082;-63
2023/12/04 00:47:41;;;;;;;23.10;10.80;;;-11.90;99.90;;;;;;4862149;29;20059;-63
2023/12/04 00:50:13;;;;;;;19.00;11.00;;;-11.90;99.90;;;;;;4879350;29;20137;-63
2023/12/04 00:52:45;;;;;;;19.30;10.07;;;-11.90;99.90;;;;;;4881374;29;20117;-63
2023/12/04 00:55:18;;;;;;;21.90;10.33;;;-11.90;99.90;;;;;;4889036;29;20053;-63
2023/12/04 00:57:50;;;;;;;19.35;9.38;;;-11.90;99.90;;;;;;4887870;29;20056;-63
2023/12/04 01:00:23;;;;;;;21.13;10.43;;;-11.90;99.90;;;;;;4885969;29;20059;-63
2023/12/04 01:02:54;;;;;;;19.70;10.73;;;-12.00;99.90;;;;;;4874720;29;20040;-63
2023/12/04 01:05:27;;;;;;;22.37;11.07;;;-12.00;99.90;;;;;;4873648;29;20204;-63
2023/12/04 01:07:59;;;;;;;21.53;11.17;;;-12.00;99.90;;;;;;4889403;29;20041;-63
2023/12/04 01:10:25;;;;;;;21.33;11.10;;;-12.00;99.90;;;;;;4891090;29;20041;-63
2023/12/04 01:12:58;;;;;;;21.37;10.43;;;-12.10;99.90;;;;;;4876802;29;20063;-63
2023/12/04 01:15:24;;;;;;;23.77;11.23;;;-12.30;99.90;;;;;;4883946;29;20041;-63
2023/12/04 01:17:52;;;;;;;19.83;10.23;;;-12.20;99.90;;;;;;4884587;29;20044;-63
2023/12/04 01:20:18;;;;;;;24.53;11.97;;;-12.20;99.90;;;;;;4885156;29;20047;-63
2023/12/04 01:22:45;;;;;;;22.53;11.10;;;-12.20;99.90;;;;;;4884086;29;20097;-63
2023/12/04 01:25:17;;;;;;;21.00;10.10;;;-12.20;99.90;;;;;;4891700;29;20509;-63
2023/12/04 01:27:50;;;;;;;21.05;10.27;;;-12.20;99.90;;;;;;4876734;29;20116;-63
2023/12/04 01:30:21;;;;;;;18.43;9.67;;;-12.30;99.90;;;;;;4888110;29;20051;-63
2023/12/04 01:32:53;;;;;;;32.00;11.27;;;-12.40;99.90;;;;;;4907527;29;20127;-63
2023/12/04 01:35:25;;;;;;;19.33;9.70;;;-12.50;99.90;;;;;;4890715;29;20465;-63
2023/12/04 01:37:52;;;;;;;20.90;10.40;;;-12.60;99.90;;;;;;4887579;29;20481;-62
2023/12/04 01:40:24;;;;;;;22.77;9.97;;;-12.70;99.90;;;;;;4873979;29;20044;-63
2023/12/04 01:42:51;;;;;;;25.03;10.43;;;-12.70;99.90;;;;;;4887778;29;20697;-63
2023/12/04 01:45:19;;;;;;;22.23;11.50;;;-12.70;99.90;;;;;;4882064;29;20033;-63
2023/12/04 01:47:51;;;;;;;17.50;8.23;;;-12.70;99.90;;;;;;4887081;29;20040;-63
2023/12/04 01:50:24;;;;;;;19.17;10.13;;;-12.80;99.90;;;;;;4889580;29;20040;-63
2023/12/04 01:52:56;;;;;;;23.88;11.52;;;-12.70;99.90;;;;;;4889367;29;20051;-63
2023/12/04 01:55:30;;;;;;;20.33;10.30;;;-12.70;99.90;;;;;;4859374;29;20045;-63
2023/12/04 01:58:02;;;;;;;19.35;10.68;;;-12.70;99.90;;;;;;4874016;29;20131;-63
2023/12/04 02:00:34;;;;;;;16.98;10.13;;;-12.60;99.90;;;;;;4877558;29;20045;-63
2023/12/04 02:03:01;;;;;;;19.57;8.97;;;-12.60;99.90;;;;;;4884665;29;20051;-63
2023/12/04 02:05:34;;;;;;;20.57;9.63;;;-12.80;99.90;;;;;;4888373;29;20041;-63
2023/12/04 02:08:02;;;;;;;17.60;9.77;;;-12.80;99.90;;;;;;4870523;29;20041;-63
2023/12/04 02:10:34;;;;;;;19.88;10.55;;;-12.90;99.90;;;;;;4881685;29;20041;-63
2023/12/04 02:13:06;;;;;;;17.87;9.80;;;-12.90;99.90;;;;;;4877601;29;20052;-63
2023/12/04 02:15:38;;;;;;;15.23;9.23;;;-12.90;99.90;;;;;;4887926;29;20128;-63
2023/12/04 02:18:06;;;;;;;24.13;11.03;;;-12.90;99.90;;;;;;4887912;29;20059;-63
2023/12/04 02:20:38;;;;;;;19.83;9.37;;;-12.80;99.90;;;;;;4888210;29;20593;-63
2023/12/04 02:23:09;;;;;;;21.13;11.10;;;-12.70;99.90;;;;;;4886461;29;20067;-62
2023/12/04 02:25:41;;;;;;;24.97;10.40;;;-12.60;99.90;;;;;;4887319;29;20052;-63
2023/12/04 02:28:15;;;;;;;24.83;10.73;;;-12.60;99.90;;;;;;4887261;29;20089;-63
2023/12/04 02:30:49;;;;;;;23.30;11.13;;;-12.50;99.90;;;;;;4886228;29;20116;-63
2023/12/04 02:33:23;;;;;;;20.10;10.70;;;-12.50;99.90;;;;;;4882065;29;20048;-63
2023/12/04 02:35:58;;;;;;;20.33;10.17;;;-12.40;99.90;;;;;;4888630;29;20041;-63
2023/12/04 02:38:30;;;;;;;18.87;9.73;;;-12.40;99.90;;;;;;4866052;29;20528;-63
2023/12/04 02:41:03;;;;;;;21.65;10.20;;;-12.50;99.90;;;;;;4884462;29;20050;-63
2023/12/04 02:43:35;;;;;;;17.43;9.10;;;-12.60;99.90;;;;;;4891036;29;20144;-63
2023/12/04 02:46:07;;;;;;;17.27;9.67;;;-12.60;99.90;;;;;;4886459;29;20045;-63
2023/12/04 02:48:40;;;;;;;18.13;9.57;;;-12.50;99.90;;;;;;4887173;29;20135;-63
2023/12/04 02:51:12;;;;;;;17.63;8.65;;;-12.50;99.90;;;;;;4875639;29;20052;-63
2023/12/04 02:53:43;;;;;;;18.07;8.97;;;-12.60;99.90;;;;;;4886891;29;20108;-63
2023/12/04 02:56:15;;;;;;;16.67;8.13;;;-12.70;99.90;;;;;;4868293;29;20520;-63
2023/12/04 02:58:42;;;;;;;20.43;8.50;;;-12.70;99.90;;;;;;4885728;29;20455;-63
2023/12/04 03:01:14;;;;;;;18.97;8.63;;;-12.70;99.90;;;;;;4884120;29;20123;-63
2023/12/04 03:03:46;;;;;;;20.93;8.43;;;-12.80;99.90;;;;;;4879563;29;20041;-63
2023/12/04 03:06:18;;;;;;;20.90;9.60;;;-12.80;99.90;;;;;;4889869;29;20408;-63
2023/12/04 03:08:50;;;;;;;19.30;9.87;;;-12.90;99.90;;;;;;4883881;29;20151;-63
2023/12/04 03:11:22;;;;;;;16.30;8.70;;;-12.90;99.90;;;;;;4884300;29;20041;-63
2023/12/04 03:13:54;;;;;;;18.97;8.67;;;-13.00;99.90;;;;;;4888391;29;20078;-63
2023/12/04 03:16:26;;;;;;;20.73;9.77;;;-13.00;99.90;;;;;;4886466;29;20047;-63
2023/12/04 03:18:57;;;;;;;20.37;9.20;;;-13.10;99.90;;;;;;4890275;29;20037;-63
2023/12/04 03:21:29;;;;;;;18.73;8.90;;;-13.20;99.90;;;;;;4885074;29;20080;-63
2023/12/04 03:24:01;;;;;;;16.60;8.37;;;-13.20;99.90;;;;;;4877363;29;20413;-62
2023/12/04 03:26:28;;;;;;;15.37;7.83;;;-13.20;99.90;;;;;;4885086;29;20075;-63
2023/12/04 03:29:00;;;;;;;17.30;8.20;;;-13.20;99.90;;;;;;4870126;29;20521;-63
2023/12/04 03:31:34;;;;;;;15.77;8.23;;;-13.20;99.90;;;;;;4889836;29;20052;-63
2023/12/04 03:34:01;;;;;;;16.23;8.90;;;-13.10;99.90;;;;;;4895569;29;20060;-63
2023/12/04 03:36:33;;;;;;;17.53;8.40;;;-13.20;99.90;;;;;;4900103;29;20047;-63
2023/12/04 03:38:59;;;;;;;17.50;8.50;;;-13.20;99.90;;;;;;4877645;29;20047;-63
2023/12/04 03:41:27;;;;;;;19.47;8.63;;;-13.20;99.90;;;;;;4891388;29;20080;-63
2023/12/04 03:43:58;;;;;;;13.73;7.87;;;-13.20;99.90;;;;;;4877307;29;20043;-63
2023/12/04 03:46:30;;;;;;;17.10;8.47;;;-13.10;99.90;;;;;;4878490;29;20044;-63
2023/12/04 03:49:03;;;;;;;16.67;8.40;;;-13.10;99.90;;;;;;4891983;29;20048;-63
2023/12/04 03:51:30;;;;;;;16.30;9.17;;;-13.10;99.90;;;;;;4897376;29;20045;-63
2023/12/04 03:54:02;;;;;;;17.60;8.87;;;-13.00;99.90;;;;;;4878750;29;20069;-63
2023/12/04 03:56:34;;;;;;;14.50;8.57;;;-12.90;99.90;;;;;;4888704;29;20120;-63
2023/12/04 03:59:08;;;;;;;18.47;9.10;;;-12.80;99.90;;;;;;4883716;29;20052;-63
2023/12/04 04:01:40;;;;;;;16.73;8.93;;;-12.70;99.90;;;;;;4879211;29;20506;-63
2023/12/04 04:04:12;;;;;;;19.13;8.93;;;-12.60;99.90;;;;;;4887104;29;20068;-63
2023/12/04 04:06:39;;;;;;;14.93;7.73;;;-12.50;99.90;;;;;;4890600;29;20049;-63
2023/12/04 04:09:11;;;;;;;14.87;7.47;;;-12.50;99.90;;;;;;4892907;29;20413;-63
2023/12/04 04:11:43;;;;;;;15.10;8.00;;;-12.50;99.90;;;;;;4890968;29;20045;-63
2023/12/04 04:14:14;;;;;;;19.30;9.07;;;-12.50;99.90;;;;;;4888703;29;20053;-63
2023/12/04 04:16:41;;;;;;;19.83;8.70;;;-12.50;99.90;;;;;;4894472;29;20395;-63
2023/12/04 04:19:13;;;;;;;20.40;9.50;;;-12.50;99.90;;;;;;4888897;29;20124;-63
2023/12/04 04:21:41;;;;;;;21.30;9.83;;;-12.50;99.90;;;;;;4867267;29;20049;-63
2023/12/04 04:24:13;;;;;;;20.57;10.07;;;-12.60;99.90;;;;;;4885646;29;20105;-63
2023/12/04 04:26:45;;;;;;;18.53;10.27;;;-12.70;99.90;;;;;;4889528;29;20037;-63
2023/12/04 04:29:17;;;;;;;20.87;10.20;;;-12.70;99.90;;;;;;4886861;29;20517;-63
2023/12/04 04:31:44;;;;;;;24.80;10.40;;;-12.70;99.90;;;;;;4876725;29;20045;-63
2023/12/04 04:34:16;;;;;;;17.90;9.90;;;-12.60;99.90;;;;;;4875244;29;20051;-63
2023/12/04 04:36:48;;;;;;;18.57;9.77;;;-12.60;99.90;;;;;;4890347;29;20402;-63
2023/12/04 04:39:15;;;;;;;23.00;10.23;;;-12.60;99.90;;;;;;4890582;29;20134;-63
2023/12/04 04:41:46;;;;;;;20.10;10.20;;;-12.50;99.90;;;;;;4891176;29;20409;-63
2023/12/04 04:44:14;;;;;;;20.40;10.97;;;-12.50;99.90;;;;;;4886536;29;20454;-63
2023/12/04 04:46:46;;;;;;;28.03;11.47;;;-12.50;99.90;;;;;;4892784;29;20041;-68
2023/12/04 04:49:18;;;;;;;19.63;10.13;;;-12.50;99.90;;;;;;4876613;29;20045;-63
2023/12/04 04:51:45;;;;;;;19.73;9.93;;;-12.50;99.90;;;;;;4866362;29;20447;-63
2023/12/04 04:54:17;;;;;;;26.33;9.17;;;-12.40;99.90;;;;;;4887870;29;20056;-63
2023/12/04 04:56:48;;;;;;;19.30;10.00;;;-12.40;99.90;;;;;;4879456;29;20045;-63
2023/12/04 04:59:20;;;;;;;18.07;9.53;;;-11.70;99.90;;;;;;4888749;29;20477;-63
2023/12/04 05:01:52;;;;;;;19.03;9.63;;;-10.90;99.90;;;;;;4892611;29;20108;-63
2023/12/04 05:04:24;;;;;;;23.40;9.83;;;-10.90;99.90;;;;;;4893190;29;20067;-63
2023/12/04 05:06:51;;;;;;;16.33;9.13;;;-11.00;99.90;;;;;;4874862;29;20422;-63
2023/12/04 05:09:18;;;;;;;17.20;9.43;;;-11.20;99.90;;;;;;4886740;29;20094;-62
2023/12/04 05:11:50;;;;;;;19.10;9.70;;;-11.40;99.90;;;;;;4875882;29;20403;-64
2023/12/04 05:14:22;;;;;;;17.13;9.33;;;-11.70;99.90;;;;;;4889469;29;20056;-63
2023/12/04 05:16:54;;;;;;;15.97;9.47;;;-11.80;99.90;;;;;;4865630;29;20041;-63
2023/12/04 05:19:26;;;;;;;19.07;10.13;;;-11.90;99.90;;;;;;4870798;29;20112;-63
2023/12/04 05:21:58;;;;;;;16.17;9.53;;;-11.90;99.90;;;;;;4886957;29;20437;-63
2023/12/04 05:24:29;;;;;;;15.57;9.30;;;-12.00;99.90;;;;;;4887741;29;20052;-63
2023/12/04 05:27:02;;;;;;;22.47;10.10;;;-12.00;99.90;;;;;;4876452;29;20049;-63
2023/12/04 05:29:34;;;;;;;14.15;7.57;;;-12.00;99.90;;;;;;4902021;29;20044;-63
2023/12/04 05:32:06;;;;;;;17.13;9.67;;;-12.00;99.90;;;;;;4890275;29;20506;-63
2023/12/04 05:34:33;;;;;;;18.37;10.07;;;-12.00;99.90;;;;;;4876539;29;20118;-63
2023/12/04 05:37:05;;;;;;;18.90;9.83;;;-12.00;99.90;;;;;;4891080;29;20108;-64
2023/12/04 05:39:31;;;;;;;18.77;9.27;;;-12.00;99.90;;;;;;4893052;29;20037;-64
2023/12/04 05:41:59;;;;;;;18.03;9.60;;;-12.00;99.90;;;;;;4879020;29;20048;-64
2023/12/04 05:44:25;;;;;;;17.03;8.50;;;-12.00;99.90;;;;;;4893330;29;20036;-65
2023/12/04 05:46:52;;;;;;;16.90;9.07;;;-12.00;99.90;;;;;;4889466;29;20101;-63
2023/12/04 05:49:24;;;;;;;15.70;8.50;;;-12.00;99.90;;;;;;4889959;29;20056;-63
2023/12/04 05:51:56;;;;;;;20.03;9.80;;;-12.10;99.90;;;;;;4892076;29;20052;-63
2023/12/04 05:54:23;;;;;;;17.43;8.77;;;-12.00;99.90;;;;;;4891549;29;20514;-64
2023/12/04 05:56:55;;;;;;;15.27;8.90;;;-12.00;99.90;;;;;;4890089;29;20597;-63
2023/12/04 05:59:27;;;;;;;18.70;9.47;;;-12.00;99.90;;;;;;4879834;29;20408;-63
2023/12/04 06:01:59;;;;;;;16.63;8.77;;;-12.00;99.90;;;;;;4884955;29;20060;-63
2023/12/04 06:04:31;;;;;;;12.90;7.30;;;-12.10;99.90;;;;;;4867516;29;20437;-63
2023/12/04 06:07:03;;;;;;;20.23;9.73;;;-12.10;99.90;;;;;;4876037;29;20610;-63
2023/12/04 06:09:36;;;;;;;23.63;10.53;;;-12.10;99.90;;;;;;4866591;29;20734;-64
2023/12/04 06:12:08;;;;;;;28.90;12.30;;;-12.10;99.90;;;;;;4891952;29;20051;-63
2023/12/04 06:14:39;;;;;;;25.17;12.60;;;-12.20;99.90;;;;;;4885898;29;20043;-63
2023/12/04 06:17:11;;;;;;;31.63;13.20;;;-12.20;99.90;;;;;;4887275;29;20036;-63
2023/12/04 06:19:45;;;;;;;31.60;13.87;;;-12.10;99.90;;;;;;4878884;29;20040;-63
2023/12/04 06:22:19;;;;;;;25.63;13.00;;;-12.10;99.90;;;;;;4888832;29;20570;-63
2023/12/04 06:24:52;;;;;;;28.63;14.77;;;-12.00;99.90;;;;;;4899443;29;20606;-63
2023/12/04 06:27:24;;;;;;;33.00;12.73;;;-11.90;99.90;;;;;;4872630;29;20076;-63
2023/12/04 06:29:56;;;;;;;36.83;15.83;;;-11.90;99.90;;;;;;4915509;23;20118;-65
2023/12/04 06:32:29;;;;;;;31.27;14.70;;;-11.90;99.90;;;;;;4905307;29;20551;-65
2023/12/04 06:35:01;;;;;;;30.17;14.37;;;-11.90;99.90;;;;;;4928674;29;20044;-65
2023/12/04 06:37:34;;;;;;;29.20;14.70;;;-12.00;99.90;;;;;;4914331;29;20052;-65
2023/12/04 06:40:11;;;;;;;32.63;16.37;;;-12.00;99.90;;;;;;4913646;29;20044;-65
2023/12/04 06:42:38;;;;;;;37.87;16.30;;;-12.00;99.90;;;;;;4911446;29;20044;-65
2023/12/04 06:45:10;;;;;;;36.37;17.00;;;-12.10;99.90;;;;;;4915560;29;20055;-65
2023/12/04 06:47:45;;;;;;;32.15;14.77;;;-12.10;99.90;;;;;;4910335;29;20056;-65
2023/12/04 06:50:17;;;;;;;29.13;15.50;;;-12.00;99.90;;;;;;4912119;29;20170;-65
2023/12/04 06:52:49;;;;;;;33.57;16.40;;;-12.00;99.90;;;;;;4909746;29;20059;-65
2023/12/04 06:55:21;;;;;;;36.57;16.40;;;-12.00;99.90;;;;;;4907824;29;20048;-65
2023/12/04 06:57:53;;;;;;;36.13;17.23;;;-11.90;99.90;;;;;;4917731;29;20108;-65
2023/12/04 07:00:25;;;;;;;32.30;15.43;;;-11.90;99.90;;;;;;4905527;29;20051;-65
2023/12/04 07:02:52;;;;;;;41.43;18.47;;;-11.80;99.90;;;;;;4907933;29;20044;-65
2023/12/04 07:05:24;;;;;;;34.80;17.63;;;-11.70;99.90;;;;;;4912433;29;20048;-65
2023/12/04 07:07:56;;;;;;;40.73;17.50;;;-11.70;99.90;;;;;;4906373;29;20045;-65
2023/12/04 07:10:23;;;;;;;46.83;20.53;;;-11.60;99.90;;;;;;4915497;29;20489;-65
2023/12/04 07:12:55;;;;;;;47.92;17.67;;;-11.60;99.90;;;;;;4911000;29;20047;-65
2023/12/04 07:15:27;;;;;;;46.80;20.40;;;-11.50;99.90;;;;;;4909494;29;20036;-65
2023/12/04 07:17:59;;;;;;;41.47;18.67;;;-11.40;99.90;;;;;;4910443;29;20127;-65
2023/12/04 07:20:31;;;;;;;47.80;21.33;;;-11.30;99.90;;;;;;4912644;29;20131;-65
2023/12/04 07:23:03;;;;;;;48.30;21.93;;;-11.20;99.90;;;;;;4914792;29;20056;-65
2023/12/04 07:25:35;;;;;;;47.00;20.87;;;-11.20;99.90;;;;;;4905404;29;20541;-65
2023/12/04 07:28:06;;;;;;;44.77;18.63;;;-11.10;99.90;;;;;;4912610;29;20115;-65
2023/12/04 07:30:33;;;;;;;46.93;21.37;;;-11.10;99.90;;;;;;4908729;29;20047;-65
2023/12/04 07:33:05;;;;;;;44.93;21.43;;;-11.10;99.90;;;;;;4917288;29;20048;-65
2023/12/04 07:35:37;;;;;;;46.60;22.43;;;-11.00;99.90;;;;;;4910682;29;20047;-65
2023/12/04 07:38:09;;;;;;;55.03;22.13;;;-10.90;99.90;;;;;;4912422;29;20413;-65
2023/12/04 07:40:41;;;;;;;54.73;21.60;;;-11.00;99.90;;;;;;4910093;29;20068;-65
2023/12/04 07:43:14;;;;;;;55.60;23.03;;;-11.00;99.90;;;;;;4908363;29;20509;-65
2023/12/04 07:45:45;;;;;;;55.80;21.80;;;-10.90;99.90;;;;;;4907658;29;20052;-65
2023/12/04 07:48:17;;;;;;;57.67;23.03;;;-10.90;99.90;;;;;;4908590;29;20044;-65
2023/12/04 07:50:49;;;;;;;74.07;29.20;;;-10.80;99.90;;;;;;4912640;29;20044;-65
2023/12/04 07:53:16;;;;;;;59.83;24.03;;;-10.70;99.90;;;;;;4909365;29;20493;-65
2023/12/04 07:55:50;;;;;;;61.83;23.30;;;-10.70;99.90;;;;;;4908682;29;20120;-65
2023/12/04 07:58:22;;;;;;;64.20;23.10;;;-10.70;99.90;;;;;;4912401;29;20671;-65
2023/12/04 08:00:54;;;;;;;65.80;23.40;;;-10.70;99.90;;;;;;4910515;29;20513;-65
2023/12/04 08:03:27;;;;;;;88.50;31.27;;;-10.60;99.90;;;;;;4909938;29;20548;-65
2023/12/04 08:05:54;;;;;;;75.57;29.73;;;-10.50;99.90;;;;;;4909479;29;20042;-65
2023/12/04 08:08:26;;;;;;;62.97;24.53;;;-10.40;99.90;;;;;;4912154;29;20516;-65
2023/12/04 08:10:58;;;;;;;55.17;21.93;;;-10.20;99.90;;;;;;4913373;29;20040;-65
2023/12/04 08:13:30;;;;;;;56.93;23.53;;;-10.20;99.90;;;;;;4912797;29;20131;-65
2023/12/04 08:16:02;;;;;;;60.40;22.53;;;-10.20;99.90;;;;;;4916879;29;20060;-65
2023/12/04 08:18:34;;;;;;;62.30;23.20;;;-10.20;99.90;;;;;;4911218;29;20525;-66
2023/12/04 08:21:06;;;;;;;53.83;21.50;;;-10.20;99.90;;;;;;4918811;29;20103;-66
2023/12/04 08:23:38;;;;;;;56.20;22.40;;;-10.20;99.90;;;;;;4913594;29;20041;-65
2023/12/04 08:26:05;;;;;;;60.37;25.97;;;-10.10;99.90;;;;;;4912972;29;20048;-66
2023/12/04 08:28:34;;;;;;;115.00;47.20;;;-10.10;99.90;;;;;;4912011;29;20060;-65
2023/12/04 08:31:08;;;;;;;76.45;32.13;;;-10.00;99.90;;;;;;4912240;29;20123;-65
2023/12/04 08:33:40;;;;;;;83.87;37.07;;;-10.00;99.90;;;;;;4911175;29;20040;-65
2023/12/04 08:36:12;;;;;;;64.77;27.90;;;-9.90;99.90;;;;;;4912190;29;20570;-66
2023/12/04 08:38:44;;;;;;;62.20;27.00;;;-9.80;99.90;;;;;;4899751;29;21472;-64
2023/12/04 08:41:16;;;;;;;65.67;26.73;;;-9.70;99.90;;;;;;4910124;29;20117;-65
2023/12/04 08:43:42;;;;;;;68.60;27.93;;;-9.70;99.90;;;;;;4910943;29;20425;-64
2023/12/04 08:46:15;;;;;;;60.33;27.90;;;-9.60;99.90;;;;;;4915609;29;20592;-65
2023/12/04 08:48:46;;;;;;;62.80;27.37;;;-9.50;99.90;;;;;;4908596;29;20123;-64
2023/12/04 08:51:18;;;;;;;64.70;26.27;;;-9.50;99.90;;;;;;4914200;29;20040;-65
2023/12/04 08:53:50;;;;;;;49.10;24.40;;;-9.40;99.90;;;;;;4916195;29;20051;-64
2023/12/04 08:56:18;;;;;;;55.97;23.57;;;-9.30;99.90;;;;;;4912648;29;20047;-64
2023/12/04 08:58:52;;;;;;;56.43;23.20;;;-9.20;99.90;;;;;;4913112;29;20523;-65
2023/12/04 09:01:24;;;;;;;71.40;30.73;;;-9.20;99.90;;;;;;4913131;29;20055;-65
2023/12/04 09:03:56;;;;;;;68.70;31.53;;;-9.00;99.90;;;;;;4915066;29;20536;-64
2023/12/04 09:06:28;;;;;;;67.93;29.57;;;-9.00;99.90;;;;;;4909304;29;20071;-64
2023/12/04 09:09:00;;;;;;;65.30;31.27;;;-8.90;99.90;;;;;;4911260;29;20052;-65
2023/12/04 09:11:32;;;;;;;65.17;28.70;;;-8.80;99.90;;;;;;4911070;29;20591;-64
2023/12/04 09:14:04;;;;;;;59.97;27.67;;;-8.90;99.90;;;;;;4913647;29;20064;-64
2023/12/04 09:16:35;;;;;;;59.70;26.20;;;-8.80;99.90;;;;;;4914387;29;20040;-65
2023/12/04 09:19:07;;;;;;;54.03;23.80;;;-8.70;99.90;;;;;;4911116;29;20471;-64
2023/12/04 09:21:39;;;;;;;52.27;22.63;;;-8.70;99.90;;;;;;4910276;29;21223;-65
2023/12/04 09:24:06;;;;;;;38.90;18.80;;;-8.10;99.90;;;;;;4919540;29;20051;-65
2023/12/04 09:26:38;;;;;;;35.97;16.47;;;-7.60;99.90;;;;;;4913739;29;20827;-65
2023/12/04 09:29:12;;;;;;;141.27;64.00;;;-7.60;99.90;;;;;;4912316;29;20041;-64
2023/12/04 09:31:44;;;;;;;67.03;33.73;;;-7.60;99.90;;;;;;4912515;29;20039;-65
2023/12/04 09:34:16;;;;;;;52.87;26.80;;;-7.70;99.90;;;;;;4914058;29;20131;-65
2023/12/04 09:36:48;;;;;;;50.70;24.23;;;-7.80;99.90;;;;;;4905921;29;20520;-64
2023/12/04 09:39:20;;;;;;;47.43;21.17;;;-7.90;99.90;;;;;;4913508;29;20517;-64
2023/12/04 09:41:52;;;;;;;42.80;20.50;;;-7.90;99.90;;;;;;4910143;29;20601;-64
2023/12/04 09:44:27;;;;;;;41.80;19.83;;;-7.90;99.90;;;;;;4908004;29;20067;-64
2023/12/04 09:47:01;;;;;;;32.00;15.53;;;-7.90;99.90;;;;;;4910465;29;20059;-64
2023/12/04 09:49:33;;;;;;;39.83;20.87;;;-8.00;99.90;;;;;;4913139;29;20059;-64
2023/12/04 09:52:05;;;;;;;38.60;20.13;;;-8.00;99.90;;;;;;4914787;29;20122;-63
2023/12/04 09:54:38;;;;;;;36.77;20.03;;;-8.10;99.90;;;;;;4911677;29;20362;-63
2023/12/04 09:57:10;;;;;;;;;;;-8.20;99.90;;;;;;4921726;29;20051;-64
2023/12/04 09:59:37;;;;;;;37.37;21.23;;;-8.20;99.90;;;;;;4910740;29;19927;-64
2023/12/04 10:02:09;;;;;;;40.63;18.50;;;-8.10;99.90;;;;;;4896207;29;20048;-64
2023/12/04 10:04:42;;;;;;;35.10;19.43;;;-8.00;99.90;;;;;;4910455;29;20040;-64
2023/12/04 10:07:14;;;;;;;41.15;20.55;;;-7.90;99.90;;;;;;4910844;29;20052;-64
2023/12/04 10:09:41;;;;;;;54.77;23.77;;;-7.90;99.90;;;;;;4912654;29;20060;-64
2023/12/04 10:12:13;;;;;;;36.80;20.90;;;-7.90;99.90;;;;;;4914778;29;20052;-64
2023/12/04 10:14:45;;;;;;;37.47;20.30;;;-7.80;99.90;;;;;;4909820;29;20040;-64
2023/12/04 10:17:17;;;;;;;37.13;19.20;;;-7.70;99.90;;;;;;4910344;29;20131;-64
2023/12/04 10:20:17;;;;;;;37.92;18.85;;;-7.70;99.90;;;;;;4913366;29;20072;-64
2023/12/04 10:22:53;;;;;;;39.67;18.13;;;-7.60;99.90;;;;;;4912693;29;20055;-64
2023/12/04 10:25:28;;;;;;;39.23;19.37;;;-7.60;99.90;;;;;;4900891;29;20486;-64
2023/12/04 10:28:10;;;;;;;38.90;20.10;;;-7.50;99.90;;;;;;4908512;29;20123;-64
2023/12/04 10:30:42;;;;;;;33.93;19.67;;;-7.50;99.90;;;;;;4907179;29;20048;-64
2023/12/04 10:33:14;;;;;;;36.07;17.97;;;-7.50;99.90;;;;;;4910672;29;20524;-64
2023/12/04 10:35:46;;;;;;;43.97;20.23;;;-7.50;99.90;;;;;;4911915;29;20045;-64
2023/12/04 10:38:19;;;;;;;32.53;17.53;;;-6.70;99.90;;;;;;4908540;29;20044;-64
2023/12/04 10:40:50;;;;;;;38.30;18.50;;;-6.50;99.90;;;;;;4912981;29;20044;-64
2023/12/04 10:43:23;;;;;;;37.60;18.57;;;-6.50;99.90;;;;;;4911662;29;20436;-64
2023/12/04 10:45:51;;;;;;;33.53;18.53;;;-6.60;99.90;;;;;;4912452;29;20092;-64
2023/12/04 10:48:23;;;;;;;34.10;18.73;;;-6.70;99.90;;;;;;4923673;29;20055;-64
2023/12/04 10:50:50;;;;;;;30.30;16.47;;;-6.70;99.90;;;;;;4915461;29;20047;-64
2023/12/04 10:53:22;;;;;;;28.83;18.10;;;-6.70;99.90;;;;;;4911746;29;20044;-64
2023/12/04 10:55:59;;;;;;;39.67;20.60;;;-6.70;99.90;;;;;;4911482;29;20041;-64
2023/12/04 10:58:32;;;;;;;34.87;18.63;;;-6.70;99.90;;;;;;4897619;29;20050;-64
2023/12/04 11:01:08;;;;;;;30.83;16.23;;;-6.70;99.90;;;;;;4908661;29;20044;-64
2023/12/04 11:03:42;;;;;;;38.03;20.17;;;-6.70;99.90;;;;;;4911458;29;20044;-64
2023/12/04 11:06:17;;;;;;;49.87;23.30;;;-6.70;99.90;;;;;;4908269;29;20521;-64
2023/12/04 11:08:52;;;;;;;36.50;19.47;;;-6.70;99.90;;;;;;4910524;29;20041;-64
2023/12/04 11:11:32;;;;;;;33.30;16.67;;;-6.70;99.90;;;;;;4911298;29;20103;-64
2023/12/04 11:14:03;;;;;;;36.03;19.53;;;-6.60;99.90;;;;;;4913287;29;20040;-65
2023/12/04 11:16:47;;;;;;;38.63;19.10;;;-6.60;99.90;;;;;;4913387;29;20051;-66
2023/12/04 11:19:37;;;;;;;39.38;18.52;;;-6.50;99.90;;;;;;4927407;29;20488;-66
2023/12/04 11:22:11;;;;;;;32.03;18.97;;;-6.50;99.90;;;;;;4911095;29;20063;-64
2023/12/04 11:24:39;;;;;;;39.20;21.47;;;-6.50;99.90;;;;;;4906955;29;20518;-63
2023/12/04 11:27:07;;;;;;;34.73;19.20;;;-6.50;99.90;;;;;;4912164;29;20096;-63
2023/12/04 11:29:39;;;;;;;37.45;18.27;;;-6.40;99.90;;;;;;4894921;29;20040;-64
2023/12/04 11:32:16;;;;;;;34.77;18.40;;;-6.30;99.90;;;;;;4910925;29;20067;-64
2023/12/04 11:34:54;;;;;;;50.87;27.13;;;-6.20;99.90;;;;;;4911283;29;20068;-64
2023/12/04 11:37:26;;;;;;;36.73;20.47;;;-6.10;99.90;;;;;;4913489;29;20044;-64
2023/12/04 11:40:04;;;;;;;38.27;22.93;;;-6.00;99.90;;;;;;4913697;29;20497;-64
2023/12/04 11:42:39;;;;;;;43.73;21.83;;;-6.00;99.90;;;;;;4908608;29;20056;-64
2023/12/04 11:45:06;;;;;;;35.50;19.40;;;-5.90;99.90;;;;;;4915025;29;20119;-64
2023/12/04 11:47:53;;;;;;;36.77;19.07;;;-6.00;99.90;;;;;;4914658;29;20041;-64
2023/12/04 11:50:21;;;;;;;36.73;19.93;;;-5.90;99.90;;;;;;4918036;29;20054;-64
2023/12/04 11:52:54;;;;;;;34.53;17.83;;;-5.90;99.90;;;;;;4909297;29;20520;-64
2023/12/04 11:55:26;;;;;;;48.58;23.52;;;-5.70;99.90;;;;;;4911938;29;20044;-64
2023/12/04 11:57:58;;;;;;;50.80;21.70;;;-5.50;99.90;;;;;;4912269;29;20140;-64
2023/12/04 12:00:25;;;;;;;48.27;24.87;;;-5.50;99.90;;;;;;4911291;29;20070;-64
2023/12/04 12:02:52;;;;;;;54.43;23.80;;;-5.40;99.90;;;;;;4913013;29;20056;-64
2023/12/04 12:05:25;;;;;;;40.73;20.03;;;-5.40;99.90;;;;;;4915814;29;20051;-64
2023/12/04 12:08:00;;;;;;;27.27;15.80;;;-5.40;99.90;;;;;;4916458;29;20054;-64
2023/12/04 12:10:33;;;;;;;40.53;19.97;;;-5.40;99.90;;;;;;4918159;29;20540;-64
2023/12/04 12:13:05;;;;;;;38.13;20.17;;;-5.40;99.90;;;;;;4914145;29;20044;-64
2023/12/04 12:15:37;;;;;;;48.07;23.00;;;-5.30;99.90;;;;;;4915700;29;20099;-64
2023/12/04 12:18:10;;;;;;;55.63;27.13;;;-5.10;99.90;;;;;;4911745;29;20478;-64
2023/12/04 12:20:42;;;;;;;45.53;23.27;;;-5.00;99.90;;;;;;4916051;29;20524;-64
2023/12/04 12:23:09;;;;;;;49.25;24.10;;;-4.80;99.90;;;;;;4911443;29;20040;-64
2023/12/04 12:25:36;;;;;;;41.00;22.97;;;-4.80;99.90;;;;;;4912699;29;20044;-64
2023/12/04 12:28:09;;;;;;;40.73;21.23;;;-4.80;99.90;;;;;;4908688;29;20048;-64
2023/12/04 12:30:42;;;;;;;40.00;22.00;;;-4.80;99.90;;;;;;4910331;29;20044;-65
2023/12/04 12:33:15;;;;;;;41.40;23.10;;;-4.80;99.90;;;;;;4912977;29;20048;-64
2023/12/04 12:35:42;;;;;;;43.90;22.13;;;-4.90;99.90;;;;;;4912267;29;20047;-65
2023/12/04 12:38:14;;;;;;;44.00;25.55;;;-4.90;99.90;;;;;;4925380;23;20136;-65
2023/12/04 12:40:46;;;;;;;33.83;18.63;;;-5.00;99.90;;;;;;4878186;29;20041;-64
2023/12/04 12:43:13;;;;;;;44.03;23.57;;;-5.00;99.90;;;;;;4879669;29;20045;-63
2023/12/04 12:45:49;;;;;;;50.83;26.27;;;-5.00;99.90;;;;;;4865056;29;20044;-62
2023/12/04 12:48:21;;;;;;;48.60;26.30;;;-5.00;99.90;;;;;;4883698;29;20048;-64